Terminal Aerodrome Forecast
Issued by NWS

Home | Current Version | Previous Version | Text Only | Print | Product List | Glossary On
Versions: 1 2 3 4 5 6 7 8 9 10 11 12 13 14 15 16 17 18
000
FTUS45 KRIW 281300 AAA
TAFCPR
TAF AMD
KCPR 281354Z 2814/0112 36006KT P6SM -SN SCT025 BKN050
      TEMPO 2814/2816 BKN025
     FM282300 03007KT P6SM VCSH SCT016 OVC026
     FM010500 02006KT P6SM SCT016 OVC026=

USA.gov is the U.S. government's official web portal to all federal, state and local government web resources and services.